Time;durP1;ratioP1;P1;durP2;ratioP2;P2;SDS_P1;SDS_P2;PMS_P1;PMS_P2;Temp;Humidity;BMP_temperature;BMP_pressure;BME280_temperature;BME280_humidity;BME280_pressure;Samples;Min_cycle;Max_cycle;Signal;HPM_P1;HPM_P2
2022/01/15 00:00:27;;;;;;;170.40;36.58;;;;;;;2.78;100.00;103315.03;5069417;28;20016;-76
2022/01/15 00:02:53;;;;;;;168.70;36.33;;;;;;;2.76;100.00;103311.41;5065820;28;20066;-76
2022/01/15 00:05:18;;;;;;;162.07;34.00;;;;;;;2.76;100.00;103314.00;5074334;28;20044;-76
2022/01/15 00:07:47;;;;;;;174.55;35.47;;;;;;;2.74;100.00;103302.66;5082750;28;20024;-76
2022/01/15 00:10:12;;;;;;;180.95;36.33;;;;;;;2.74;100.00;103308.69;5084887;28;20036;-76
2022/01/15 00:12:40;;;;;;;170.50;34.83;;;;;;;2.72;100.00;103301.59;5083715;28;20047;-76
2022/01/15 00:15:09;;;;;;;183.90;38.35;;;;;;;2.71;100.00;103316.13;5084187;28;20017;-76
2022/01/15 00:20:19;;;;;;;161.75;35.55;;;;;;;2.73;100.00;103311.13;5071416;28;20073;-76
2022/01/15 00:22:47;;;;;;;173.18;35.33;;;;;;;2.73;100.00;103300.84;5078184;28;20024;-76
2022/01/15 00:25:14;;;;;;;167.93;37.33;;;;;;;2.74;100.00;103300.97;5081307;28;20021;-76
2022/01/15 00:27:40;;;;;;;174.05;37.20;;;;;;;2.74;100.00;103297.50;5075480;28;20255;-76
2022/01/15 00:30:06;;;;;;;182.55;37.42;;;;;;;2.75;100.00;103289.00;5082983;28;20030;-76
2022/01/15 00:32:32;;;;;;;178.25;36.42;;;;;;;2.75;100.00;103299.28;5070884;28;20322;-76
2022/01/15 00:34:57;;;;;;;175.30;34.25;;;;;;;2.73;100.00;103296.56;5074817;28;20028;-76
2022/01/15 00:37:23;;;;;;;151.10;33.13;;;;;;;2.72;100.00;103288.72;5066074;28;20016;-76
2022/01/15 00:39:48;;;;;;;162.63;33.75;;;;;;;2.71;100.00;103292.03;5082004;28;20086;-76
2022/01/15 00:42:14;;;;;;;154.60;32.42;;;;;;;2.70;100.00;103296.28;5082494;28;20089;-76
2022/01/15 00:44:41;;;;;;;156.55;33.03;;;;;;;2.68;100.00;103292.69;5077836;28;20306;-76
2022/01/15 00:47:06;;;;;;;155.45;30.63;;;;;;;2.67;100.00;103279.66;5073284;28;20264;-76
2022/01/15 00:49:32;;;;;;;158.02;33.35;;;;;;;2.67;100.00;103271.94;5067834;28;20027;-76
2022/01/15 00:51:57;;;;;;;141.52;29.98;;;;;;;2.64;100.00;103261.34;5074195;28;20021;-76
2022/01/15 00:54:22;;;;;;;153.63;30.77;;;;;;;2.63;100.00;103272.41;5076758;28;20012;-76
2022/01/15 00:56:48;;;;;;;151.88;31.33;;;;;;;2.58;100.00;103260.00;5073815;28;20017;-76
2022/01/15 00:59:14;;;;;;;134.93;30.75;;;;;;;2.56;100.00;103261.53;5078167;28;20032;-76
2022/01/15 01:01:40;;;;;;;149.00;32.30;;;;;;;2.52;100.00;103253.34;5071054;28;20079;-76
2022/01/15 01:04:05;;;;;;;135.90;27.95;;;;;;;2.49;100.00;103266.84;5076296;28;20085;-76
2022/01/15 01:06:30;;;;;;;157.32;31.73;;;;;;;2.49;100.00;103264.28;5078006;28;20009;-76
2022/01/15 01:08:56;;;;;;;148.95;29.55;;;;;;;2.48;100.00;103259.88;5076876;28;20016;-76
2022/01/15 01:20:06;;;;;;;145.55;30.65;;;;;;;2.45;100.00;103246.75;5070293;28;20070;-76
2022/01/15 01:22:53;;;;;;;141.38;30.00;;;;;;;2.47;100.00;103244.31;5079627;28;20127;-76
2022/01/15 01:25:19;;;;;;;166.23;30.92;;;;;;;2.47;100.00;103240.06;5064148;28;20279;-76
2022/01/15 01:27:49;;;;;;;149.30;30.60;;;;;;;2.48;100.00;103243.53;5071035;28;20084;-76
2022/01/15 01:35:29;;;;;;;150.65;29.67;;;;;;;2.47;100.00;103237.47;5077552;28;20020;-76
2022/01/15 01:37:55;;;;;;;146.93;31.77;;;;;;;2.44;100.00;103238.09;5083191;28;20028;-76
2022/01/15 01:40:25;;;;;;;143.45;29.80;;;;;;;2.43;100.00;103232.78;5075385;28;20031;-76
2022/01/15 01:43:04;;;;;;;149.13;31.42;;;;;;;2.44;100.00;103235.50;5083530;28;20021;-76
2022/01/15 01:45:29;;;;;;;146.05;30.10;;;;;;;2.46;100.00;103234.75;5077973;28;20065;-76
2022/01/15 01:47:55;;;;;;;144.13;31.15;;;;;;;2.46;100.00;103232.19;5078412;28;20044;-76
2022/01/15 01:50:24;;;;;;;159.45;31.20;;;;;;;2.46;100.00;103234.75;5069195;28;20290;-76
2022/01/15 01:52:55;;;;;;;145.05;29.58;;;;;;;2.44;100.00;103214.94;5076732;28;20036;-76
2022/01/15 01:55:24;;;;;;;148.32;29.48;;;;;;;2.42;100.00;103223.28;5080079;28;20169;-76
2022/01/15 01:57:52;;;;;;;143.77;30.15;;;;;;;2.42;100.00;103228.44;5081966;28;20178;-76
2022/01/15 02:00:20;;;;;;;131.32;28.65;;;;;;;2.40;100.00;103223.16;5068228;28;20085;-76
2022/01/15 02:02:49;;;;;;;128.88;26.85;;;;;;;2.38;100.00;103216.94;5073321;28;20051;-76
2022/01/15 02:05:17;;;;;;;138.90;27.05;;;;;;;2.40;100.00;103214.50;5083624;28;20035;-76
2022/01/15 02:07:44;;;;;;;118.82;26.27;;;;;;;2.39;100.00;103218.75;5079310;28;20044;-76
2022/01/15 02:10:13;;;;;;;140.80;29.50;;;;;;;2.40;100.00;103209.34;5081061;28;20048;-76
2022/01/15 02:12:38;;;;;;;119.50;25.67;;;;;;;2.41;100.00;103208.59;5074545;28;20013;-76
2022/01/15 02:15:14;;;;;;;130.30;27.63;;;;;;;2.43;100.00;103209.63;5074083;28;20025;-76
2022/01/15 02:17:41;;;;;;;141.60;27.73;;;;;;;2.43;100.00;103209.63;5075941;28;20183;-76
2022/01/15 02:25:49;;;;;;;114.85;25.67;;;;;;;2.46;100.00;103217.66;5084274;28;20024;-76
2022/01/15 02:28:20;;;;;;;128.70;26.77;;;;;;;2.45;100.00;103208.13;5079126;28;20020;-76
2022/01/15 02:30:45;;;;;;;125.63;25.58;;;;;;;2.46;100.00;103207.34;5089344;28;20246;-76
2022/01/15 02:33:10;;;;;;;129.93;25.30;;;;;;;2.47;100.00;103203.13;5076751;28;20047;-76
2022/01/15 02:35:36;;;;;;;123.22;25.58;;;;;;;2.45;100.00;103197.84;5085310;28;20017;-76
2022/01/15 02:38:07;;;;;;;139.43;27.48;;;;;;;2.43;100.00;103199.34;5082175;28;20022;-76
2022/01/15 02:40:35;;;;;;;117.38;28.38;;;;;;;2.40;100.00;103189.69;5085024;28;20012;-76
2022/01/15 02:43:03;;;;;;;141.60;29.17;;;;;;;2.41;100.00;103185.44;5083883;28;20016;-76
2022/01/15 02:45:32;;;;;;;137.35;29.02;;;;;;;2.38;100.00;103182.59;5085204;28;20084;-75
2022/01/15 02:48:00;;;;;;;125.22;28.48;;;;;;;2.37;100.00;103175.63;5101399;28;20016;-76
2022/01/15 02:50:26;;;;;;;131.82;28.85;;;;;;;2.34;100.00;103165.03;5084728;28;20027;-76
2022/01/15 02:52:51;;;;;;;128.88;28.73;;;;;;;2.33;100.00;103152.94;5083536;28;20167;-76
2022/01/15 02:55:16;;;;;;;122.95;27.80;;;;;;;2.31;100.00;103149.31;5083865;28;20016;-76
2022/01/15 02:57:42;;;;;;;136.82;28.42;;;;;;;2.29;100.00;103145.69;5083440;28;20086;-76
2022/01/15 03:00:08;;;;;;;133.88;28.90;;;;;;;2.29;100.00;103153.41;5086436;28;20204;-76
2022/01/15 03:02:33;;;;;;;135.15;28.02;;;;;;;2.29;100.00;103148.25;5082193;28;20008;-76
2022/01/15 03:04:59;;;;;;;132.32;28.38;;;;;;;2.25;100.00;103147.97;5081260;28;20217;-76
2022/01/15 03:07:24;;;;;;;135.57;31.20;;;;;;;2.25;100.00;103140.25;5084094;28;20020;-76
2022/01/15 03:09:49;;;;;;;124.68;28.83;;;;;;;2.23;100.00;103139.22;5085082;28;20028;-76
2022/01/15 03:12:15;;;;;;;131.77;29.52;;;;;;;2.21;100.00;103134.69;5084475;28;20083;-76
2022/01/15 03:14:42;;;;;;;118.95;28.67;;;;;;;2.20;100.00;103130.28;5077622;28;20032;-76
2022/01/15 03:17:07;;;;;;;133.77;26.88;;;;;;;2.18;100.00;103125.00;5083947;28;20028;-76
2022/01/15 03:19:33;;;;;;;124.03;27.55;;;;;;;2.16;100.00;103131.69;5081793;28;20020;-76
2022/01/15 03:21:58;;;;;;;120.95;27.95;;;;;;;2.16;100.00;103129.09;5082724;28;20258;-76
2022/01/15 03:24:23;;;;;;;116.05;25.40;;;;;;;2.15;100.00;103129.84;5081864;28;20170;-76
2022/01/15 03:26:48;;;;;;;113.95;26.63;;;;;;;2.15;100.00;103126.41;5084913;28;20024;-76
2022/01/15 03:29:14;;;;;;;104.28;25.70;;;;;;;2.12;100.00;103124.44;5081790;28;20163;-76
2022/01/15 03:31:39;;;;;;;108.00;25.65;;;;;;;2.10;100.00;103118.25;5082216;28;20043;-76
2022/01/15 03:34:04;;;;;;;119.97;26.63;;;;;;;2.12;100.00;103126.09;5082027;28;20019;-76
2022/01/15 03:36:30;;;;;;;120.45;25.40;;;;;;;2.11;100.00;103125.19;5084486;28;20028;-76
2022/01/15 03:38:55;;;;;;;118.75;27.45;;;;;;;2.10;100.00;103128.53;5082870;28;20012;-76
2022/01/15 03:41:20;;;;;;;121.55;26.48;;;;;;;2.12;100.00;103126.09;5083454;28;20104;-76
2022/01/15 03:43:46;;;;;;;115.60;26.13;;;;;;;2.11;100.00;103120.03;5083014;28;20020;-76
2022/01/15 03:46:12;;;;;;;123.18;27.92;;;;;;;2.11;100.00;103120.03;5081980;28;20091;-75
2022/01/15 03:48:37;;;;;;;131.40;27.48;;;;;;;2.12;100.00;103110.69;5082459;28;20028;-76
2022/01/15 03:51:03;;;;;;;121.25;26.52;;;;;;;2.12;100.00;103116.72;5073100;28;20333;-76
2022/01/15 03:53:28;;;;;;;123.82;26.23;;;;;;;2.14;100.00;103114.28;5077568;28;20228;-76
2022/01/15 03:55:54;;;;;;;118.65;25.88;;;;;;;2.14;100.00;103110.03;5078358;28;20052;-76
2022/01/15 03:58:20;;;;;;;114.53;26.20;;;;;;;2.14;100.00;103101.44;5082136;28;20194;-76
2022/01/15 04:00:46;;;;;;;115.93;26.10;;;;;;;2.13;100.00;103097.97;5073002;28;20084;-76
2022/01/15 04:03:11;;;;;;;119.72;27.20;;;;;;;2.13;100.00;103095.38;5073319;28;20275;-76
2022/01/15 04:05:37;;;;;;;121.57;29.27;;;;;;;2.14;100.00;103099.75;5072154;28;20021;-76
2022/01/15 04:08:02;;;;;;;105.18;25.23;;;;;;;2.14;100.00;103102.31;5081093;28;20083;-76
2022/01/15 04:10:28;;;;;;;84.30;21.88;;;;;;;2.14;100.00;103104.88;5042487;28;1094629;-76
2022/01/15 04:12:53;;;;;;;101.75;22.17;;;;;;;2.12;100.00;103096.13;5081179;28;20032;-76
2022/01/15 04:15:20;;;;;;;95.68;23.33;;;;;;;2.12;100.00;103090.09;5077701;28;20093;-76
2022/01/15 04:17:48;;;;;;;89.70;24.02;;;;;;;2.12;100.00;103091.00;5071504;28;20150;-76
2022/01/15 04:20:18;;;;;;;88.80;23.30;;;;;;;2.11;100.00;103081.47;5076158;28;20278;-76
2022/01/15 04:22:43;;;;;;;100.80;24.95;;;;;;;2.12;100.00;103072.09;5080594;28;20163;-76
2022/01/15 04:25:09;;;;;;;109.05;25.25;;;;;;;2.11;100.00;103073.75;5081635;28;20028;-76
2022/01/15 04:27:35;;;;;;;102.82;26.67;;;;;;;2.11;100.00;103078.00;5078410;28;20016;-76
2022/01/15 04:30:03;;;;;;;111.35;27.10;;;;;;;2.09;100.00;103075.28;5082430;28;20020;-76
2022/01/15 04:32:29;;;;;;;99.40;26.20;;;;;;;2.08;100.00;103076.94;5080078;28;20231;-76
2022/01/15 04:34:54;;;;;;;107.25;26.20;;;;;;;2.06;100.00;103067.28;5078393;28;20028;-76
2022/01/15 04:37:22;;;;;;;104.40;25.92;;;;;;;2.07;100.00;103069.06;5079087;28;20008;-76
2022/01/15 04:39:48;;;;;;;99.30;24.42;;;;;;;2.07;100.00;103067.44;5073746;28;20263;-76
2022/01/15 04:42:15;;;;;;;101.97;24.70;;;;;;;2.09;100.00;103062.44;5083056;28;20221;-76
2022/01/15 04:44:41;;;;;;;110.65;24.45;;;;;;;2.09;100.00;103058.19;5075890;28;20263;-76
2022/01/15 04:47:07;;;;;;;105.35;24.65;;;;;;;2.11;100.00;103063.47;5076600;28;20059;-76
2022/01/15 04:49:32;;;;;;;103.45;25.30;;;;;;;2.11;100.00;103063.47;5079265;28;20210;-76
2022/01/15 04:51:58;;;;;;;98.10;24.60;;;;;;;2.08;100.00;103056.34;5070618;28;20017;-76
2022/01/15 04:54:23;;;;;;;91.75;24.05;;;;;;;2.08;100.00;103052.88;5077715;28;20171;-76
2022/01/15 04:56:49;;;;;;;89.05;22.08;;;;;;;2.05;100.00;103053.50;5082256;28;20282;-76
2022/01/15 04:59:14;;;;;;;83.43;22.33;;;;;;;2.05;100.00;103050.03;5077093;28;20271;-76
2022/01/15 05:01:39;;;;;;;81.82;22.52;;;;;;;2.02;100.00;103042.03;5079395;28;20025;-76
2022/01/15 05:04:05;;;;;;;94.60;23.52;;;;;;;2.00;100.00;103049.59;5077233;28;20148;-76
2022/01/15 05:06:30;;;;;;;93.60;22.52;;;;;;;1.98;100.00;103045.97;5080066;28;20163;-76
2022/01/15 05:09:04;;;;;;;99.38;24.08;;;;;;;1.99;100.00;103045.22;5082359;28;20045;-76
2022/01/15 05:11:44;;;;;;;92.43;23.38;;;;;;;2.00;100.00;103041.91;5082509;28;20055;-76
2022/01/15 05:14:11;;;;;;;97.25;23.15;;;;;;;2.03;100.00;103046.44;5081723;28;20025;-76
2022/01/15 05:16:36;;;;;;;89.55;23.33;;;;;;;2.03;100.00;103033.56;5083833;28;20024;-76
2022/01/15 05:19:02;;;;;;;98.85;23.65;;;;;;;2.05;100.00;103037.19;5079235;28;20036;-76
2022/01/15 05:21:28;;;;;;;96.80;24.63;;;;;;;2.06;100.00;103028.72;5077993;28;20032;-76
2022/01/15 05:23:53;;;;;;;91.68;23.42;;;;;;;2.05;100.00;103025.22;5078835;28;20211;-76
2022/01/15 05:26:18;;;;;;;98.30;23.20;;;;;;;2.08;100.00;103024.59;5083595;28;20019;-76
2022/01/15 05:28:43;;;;;;;88.63;23.85;;;;;;;2.08;100.00;103017.78;5082328;28;20058;-76
2022/01/15 05:31:09;;;;;;;93.40;22.88;;;;;;;2.09;100.00;103017.03;5079498;28;20016;-76
2022/01/15 05:33:34;;;;;;;92.53;23.23;;;;;;;2.11;100.00;103017.16;5081659;28;20027;-76
2022/01/15 05:36:00;;;;;;;95.85;24.73;;;;;;;2.09;100.00;103009.31;5081431;28;20262;-76
2022/01/15 05:38:25;;;;;;;97.85;24.65;;;;;;;2.09;100.00;103001.59;5081727;28;20087;-76
2022/01/15 05:40:51;;;;;;;99.75;24.60;;;;;;;2.11;100.00;103003.41;5079626;28;20025;-76
2022/01/15 05:43:16;;;;;;;103.57;25.88;;;;;;;2.11;100.00;102995.72;5082264;28;20023;-76
2022/01/15 05:45:41;;;;;;;105.43;24.88;;;;;;;2.12;100.00;102992.38;5081236;28;20020;-76
2022/01/15 05:48:06;;;;;;;99.70;24.38;;;;;;;2.12;100.00;102994.94;5078916;28;20037;-76
2022/01/15 05:50:32;;;;;;;90.45;23.08;;;;;;;2.12;100.00;102992.38;5073419;28;20013;-76
2022/01/15 05:52:58;;;;;;;87.72;23.33;;;;;;;2.12;100.00;102998.41;5079633;28;20338;-76
2022/01/15 05:55:24;;;;;;;84.88;22.98;;;;;;;2.12;100.00;102988.13;5077105;28;20292;-76
2022/01/15 05:57:49;;;;;;;95.63;25.10;;;;;;;2.11;100.00;102977.72;5082635;28;20029;-76
2022/01/15 06:00:15;;;;;;;103.13;24.98;;;;;;;2.09;100.00;102986.16;5074896;28;20067;-76
2022/01/15 06:02:40;;;;;;;85.95;23.33;;;;;;;2.05;100.00;102978.03;5082501;28;20025;-76
2022/01/15 06:05:06;;;;;;;95.72;25.42;;;;;;;2.02;100.00;102973.50;5082745;28;20024;-76
2022/01/15 06:07:31;;;;;;;105.93;24.70;;;;;;;2.01;100.00;102978.50;5080435;28;20214;-76
2022/01/15 06:09:57;;;;;;;103.40;24.20;;;;;;;2.00;100.00;102977.63;5073952;28;20325;-76
2022/01/15 06:12:29;;;;;;;98.88;26.25;;;;;;;1.99;100.00;102978.38;5083019;28;20031;-76
2022/01/15 06:14:54;;;;;;;119.72;28.17;;;;;;;1.99;100.00;102968.09;5079089;28;20080;-76
2022/01/15 06:17:19;;;;;;;118.63;26.98;;;;;;;1.96;100.00;102972.06;5083029;28;20028;-76
2022/01/15 06:19:44;;;;;;;97.63;23.67;;;;;;;1.97;100.00;102971.28;5073175;28;20048;-76
2022/01/15 06:22:10;;;;;;;116.22;25.60;;;;;;;1.97;100.00;102969.63;5081130;28;20020;-76
2022/01/15 06:24:35;;;;;;;108.75;25.17;;;;;;;1.98;100.00;102967.94;5080466;28;20024;-77
2022/01/15 06:27:00;;;;;;;110.97;25.05;;;;;;;1.98;100.00;102955.09;5078751;28;20074;-76
2022/01/15 06:29:26;;;;;;;105.30;24.92;;;;;;;2.00;100.00;102961.25;5080686;28;20153;-76
2022/01/15 06:31:52;;;;;;;123.97;27.75;;;;;;;1.98;100.00;102966.28;5080837;28;20117;-76
2022/01/15 06:34:18;;;;;;;114.95;26.98;;;;;;;1.96;100.00;102957.53;5079152;28;20020;-76
2022/01/15 06:36:43;;;;;;;122.35;27.00;;;;;;;1.97;100.00;102961.00;5083071;28;20034;-76
2022/01/15 06:39:08;;;;;;;119.20;25.13;;;;;;;1.99;100.00;102964.63;5079567;28;20093;-76
2022/01/15 06:41:34;;;;;;;109.97;24.50;;;;;;;1.99;100.00;102964.63;5075333;28;20100;-76
2022/01/15 06:43:59;;;;;;;108.30;24.58;;;;;;;1.96;100.00;102959.19;5082155;28;20256;-76
2022/01/15 06:46:24;;;;;;;102.35;22.92;;;;;;;1.95;100.00;102952.25;5082475;28;20024;-76
2022/01/15 06:48:50;;;;;;;107.22;23.88;;;;;;;1.95;100.00;102952.25;5082151;28;20322;-76
2022/01/15 06:51:15;;;;;;;124.88;25.88;;;;;;;1.95;100.00;102952.25;5071407;28;20031;-76
2022/01/15 06:53:40;;;;;;;104.93;24.13;;;;;;;1.94;100.00;102946.22;5074088;28;20032;-76
2022/01/15 06:56:06;;;;;;;109.68;23.95;;;;;;;1.94;100.00;102948.78;5077833;28;20256;-76
2022/01/15 06:58:31;;;;;;;108.28;23.15;;;;;;;1.94;100.00;102950.44;5080784;28;20385;-76
2022/01/15 07:00:56;;;;;;;116.78;24.50;;;;;;;1.94;100.00;102955.56;5084212;28;20356;-76
2022/01/15 07:03:22;;;;;;;116.55;24.58;;;;;;;1.94;100.00;102955.56;5084757;28;20020;-76
2022/01/15 07:05:47;;;;;;;106.03;22.67;;;;;;;1.95;100.00;102957.38;5080788;28;20020;-76
2022/01/15 07:08:12;;;;;;;115.63;25.35;;;;;;;1.95;100.00;102957.38;5083809;28;20059;-76
2022/01/15 07:10:41;;;;;;;113.05;22.95;;;;;;;1.92;100.00;102958.00;5086097;28;20078;-76
2022/01/15 07:13:07;;;;;;;98.88;22.40;;;;;;;1.91;100.00;102957.09;5084844;28;20024;-76
2022/01/15 07:15:34;;;;;;;105.22;23.05;;;;;;;1.90;100.00;102957.84;5083625;28;20070;-76
2022/01/15 07:17:59;;;;;;;108.30;22.67;;;;;;;1.89;100.00;102957.72;5084234;28;20016;-76
2022/01/15 07:20:25;;;;;;;122.68;22.88;;;;;;;1.87;100.00;102955.00;5082268;28;20067;-76
2022/01/15 07:22:50;;;;;;;94.35;20.67;;;;;;;1.84;100.00;102953.81;5083860;28;20271;-76
2022/01/15 07:25:16;;;;;;;92.20;20.13;;;;;;;1.82;100.00;102958.78;5082603;28;20093;-76
2022/01/15 07:27:42;;;;;;;88.82;19.63;;;;;;;1.82;100.00;102960.47;5083855;28;20243;-76
2022/01/15 07:30:09;;;;;;;103.47;20.08;;;;;;;1.79;100.00;102950.81;5082658;28;20017;-76
2022/01/15 07:32:35;;;;;;;93.50;18.20;;;;;;;1.78;100.00;102955.81;5082584;28;20046;-76
2022/01/15 07:35:01;;;;;;;77.43;18.40;;;;;;;1.78;100.00;102956.69;5077141;28;20016;-76
2022/01/15 07:37:26;;;;;;;80.63;17.67;;;;;;;1.76;100.00;102950.53;5080887;28;20267;-76
2022/01/15 07:39:53;;;;;;;71.85;16.80;;;;;;;1.77;100.00;102951.41;5081685;28;20092;-76
2022/01/15 07:42:19;;;;;;;78.55;16.52;;;;;;;1.75;100.00;102953.84;5085491;28;20271;-76
2022/01/15 07:44:44;;;;;;;83.72;18.75;;;;;;;1.75;100.00;102946.13;5077336;28;20019;-76
2022/01/15 07:47:10;;;;;;;76.68;18.77;;;;;;;1.74;100.00;102946.91;5077685;28;20282;-76
2022/01/15 07:49:35;;;;;;;94.78;18.10;;;;;;;1.74;100.00;102952.97;5079410;28;20016;-76
2022/01/15 07:52:01;;;;;;;86.55;17.23;;;;;;;1.73;100.00;102952.81;5081785;28;20025;-76
2022/01/15 07:54:26;;;;;;;79.93;16.67;;;;;;;1.69;100.00;102961.00;5079356;28;20016;-76
2022/01/15 07:56:55;;;;;;;69.85;16.23;;;;;;;1.66;100.00;102960.72;5083938;28;20278;-76
2022/01/15 07:59:23;;;;;;;63.63;15.00;;;;;;;1.66;100.00;102958.13;5077950;28;20020;-76
2022/01/15 08:01:51;;;;;;;72.47;15.15;;;;;;;1.61;100.00;102970.56;5084850;28;20108;-76
2022/01/15 08:04:17;;;;;;;68.13;16.38;;;;;;;1.58;100.00;102962.56;5082131;28;20024;-76
2022/01/15 08:06:42;;;;;;;59.25;15.32;;;;;;;1.55;100.00;102965.75;5082183;28;20019;-76
2022/01/15 08:09:08;;;;;;;69.65;15.00;;;;;;;1.52;100.00;102961.97;5080488;28;20031;-76
2022/01/15 08:11:34;;;;;;;86.43;14.98;;;;;;;1.47;100.00;102958.06;5081540;28;20266;-76
2022/01/15 08:13:59;;;;;;;76.90;14.25;;;;;;;1.43;100.00;102964.56;5080092;28;20069;-76
2022/01/15 08:16:24;;;;;;;66.20;14.32;;;;;;;1.39;100.00;102962.47;5081829;28;20152;-76
2022/01/15 08:18:50;;;;;;;61.00;18.30;;;;;;;1.36;100.00;102962.19;5074343;28;20096;-76
2022/01/15 08:21:15;;;;;;;88.65;17.35;;;;;;;1.35;100.00;102955.25;5083710;28;20326;-76
2022/01/15 08:23:41;;;;;;;73.47;16.83;;;;;;;1.34;100.00;102966.28;5079410;28;20089;-76
2022/01/15 08:26:06;;;;;;;91.95;16.02;;;;;;;1.35;100.00;102952.69;5077078;28;20050;-77
2022/01/15 08:28:32;;;;;;;81.95;16.10;;;;;;;1.28;100.00;102955.44;5080567;28;20032;-76
2022/01/15 08:30:57;;;;;;;67.68;15.70;;;;;;;1.23;100.00;102951.50;5081831;28;20175;-77
2022/01/15 08:33:22;;;;;;;70.18;15.75;;;;;;;1.20;100.00;102949.53;5096647;28;20031;-77
2022/01/15 08:35:48;;;;;;;65.85;16.35;;;;;;;1.18;100.00;102946.81;5074336;28;20028;-76
2022/01/15 08:38:13;;;;;;;72.75;17.60;;;;;;;1.17;100.00;102950.19;5074930;28;20013;-76
2022/01/15 08:40:39;;;;;;;66.35;17.13;;;;;;;1.16;100.00;102943.22;5070647;28;20021;-76
2022/01/15 08:43:04;;;;;;;66.68;17.15;;;;;;;1.15;100.00;102946.53;5075404;28;20237;-76
2022/01/15 08:45:30;;;;;;;71.55;17.88;;;;;;;1.15;100.00;102948.22;5079386;28;20020;-76
2022/01/15 08:47:56;;;;;;;66.68;17.77;;;;;;;1.16;100.00;102950.94;5081481;28;20091;-76
2022/01/15 08:50:22;;;;;;;79.93;17.45;;;;;;;1.18;100.00;102956.22;5081276;28;20032;-76
2022/01/15 08:52:48;;;;;;;79.03;18.92;;;;;;;1.15;100.00;102943.97;5082035;28;20133;-77
2022/01/15 08:55:14;;;;;;;90.75;20.63;;;;;;;1.17;100.00;102950.19;5072224;28;20028;-76
2022/01/15 08:57:40;;;;;;;74.57;19.10;;;;;;;1.15;100.00;102954.25;5074834;28;20019;-76
2022/01/15 09:00:08;;;;;;;85.00;18.73;;;;;;;1.09;100.00;102951.09;5070450;28;20171;-77
2022/01/15 09:02:34;;;;;;;83.03;19.75;;;;;;;1.04;100.00;102955.78;5069710;28;20033;-76
2022/01/15 09:04:59;;;;;;;79.07;19.20;;;;;;;1.03;100.00;102953.97;5069069;28;20020;-76
2022/01/15 09:07:24;;;;;;;80.82;18.90;;;;;;;1.03;100.00;102951.41;5075999;28;20012;-76
2022/01/15 09:09:50;;;;;;;74.75;18.33;;;;;;;1.03;100.00;102950.50;5075766;28;20271;-76
2022/01/15 09:12:17;;;;;;;94.45;22.70;;;;;;;1.03;100.00;102956.53;5067846;28;20027;-76
2022/01/15 09:14:42;;;;;;;73.30;20.33;;;;;;;1.03;100.00;102945.38;5068413;28;20282;-76
2022/01/15 09:17:08;;;;;;;81.97;20.52;;;;;;;1.02;100.00;102947.03;5082936;28;20013;-76
2022/01/15 09:19:34;;;;;;;82.90;22.33;;;;;;;1.01;100.00;102936.59;5071293;28;20027;-76
2022/01/15 09:22:00;;;;;;;98.68;23.40;;;;;;;1.01;100.00;102936.59;5081223;28;20090;-76
2022/01/15 09:24:25;;;;;;;74.90;20.40;;;;;;;1.02;100.00;102931.63;5079109;28;20271;-76
2022/01/15 09:32:04;;;;;;;93.28;22.77;;;;;;;1.07;100.00;102926.91;5078629;28;20031;-74
2022/01/15 09:34:32;;;;;;;83.13;23.17;;;;;;;1.08;100.00;102918.47;5075199;28;20016;-72
2022/01/15 09:36:58;;;;;;;94.57;25.52;;;;;;;1.10;100.00;102919.53;5074670;28;20021;-71
2022/01/15 09:39:23;;;;;;;93.55;24.23;;;;;;;1.08;100.00;102917.56;5068627;28;20027;-71
2022/01/15 09:41:51;;;;;;;91.47;26.67;;;;;;;1.05;100.00;102907.91;5077972;28;20260;-65
2022/01/15 09:44:18;;;;;;;104.07;25.15;;;;;;;1.06;100.00;102912.28;5068901;28;20013;-65
2022/01/15 09:46:47;;;;;;;86.78;22.02;;;;;;;1.06;100.00;102908.81;5073872;28;20032;-65
2022/01/15 09:49:15;;;;;;;86.50;23.48;;;;;;;1.08;100.00;102915.00;5071668;28;20081;-65
2022/01/15 09:51:42;;;;;;;95.35;24.85;;;;;;;1.10;100.00;102914.41;5078275;28;20163;-65
2022/01/15 09:54:07;;;;;;;93.18;24.08;;;;;;;1.13;100.00;102917.25;5068306;28;20021;-65
2022/01/15 09:56:33;;;;;;;93.50;24.13;;;;;;;1.15;100.00;102923.44;5082894;28;20028;-65
2022/01/15 09:59:02;;;;;;;95.80;24.52;;;;;;;1.15;100.00;102923.44;5077744;28;20051;-65
2022/01/15 10:01:28;;;;;;;96.03;24.30;;;;;;;1.16;100.00;102919.19;5078677;28;20032;-65
2022/01/15 10:03:53;;;;;;;104.38;25.15;;;;;;;1.19;100.00;102920.41;5076777;28;20016;-65
2022/01/15 10:06:18;;;;;;;97.40;24.17;;;;;;;1.22;100.00;102917.22;5082552;28;20009;-65
2022/01/15 10:09:07;;;;;;;106.80;25.60;;;;;;;1.23;100.00;102911.31;5072062;28;20029;-65
2022/01/15 10:11:53;;;;;;;91.78;24.13;;;;;;;1.20;100.00;102914.50;5070263;28;20275;-65
2022/01/15 10:14:31;;;;;;;101.97;25.73;;;;;;;1.21;100.00;102916.31;5078656;28;20025;-65
2022/01/15 10:16:59;;;;;;;92.88;24.02;;;;;;;1.24;100.00;102925.06;5081772;28;20036;-65
2022/01/15 10:19:31;;;;;;;88.47;21.27;;;;;;;1.20;100.00;102929.00;5080542;28;20016;-65
2022/01/15 10:22:14;;;;;;;91.03;23.00;;;;;;;1.17;100.00;102921.94;5076889;28;20162;-65
2022/01/15 10:24:42;;;;;;;94.20;24.70;;;;;;;1.18;100.00;102921.16;5072279;28;20020;-65
2022/01/15 10:27:22;;;;;;;102.05;24.25;;;;;;;1.18;100.00;102913.44;5083439;28;20286;-65
2022/01/15 10:29:53;;;;;;;112.07;26.40;;;;;;;1.20;100.00;102911.03;5069971;28;20025;-65
2022/01/15 10:32:19;;;;;;;91.47;23.40;;;;;;;1.23;100.00;102907.84;5077792;28;20286;-65
2022/01/15 10:34:45;;;;;;;105.47;26.88;;;;;;;1.24;100.00;102905.44;5076223;28;20087;-65
2022/01/15 10:37:14;;;;;;;112.95;25.58;;;;;;;1.30;100.00;102899.97;5084822;28;20090;-65
2022/01/15 10:39:52;;;;;;;114.97;26.70;;;;;;;1.31;100.00;102896.66;5086399;28;20054;-65
2022/01/15 10:42:22;;;;;;;110.35;27.60;;;;;;;1.36;100.00;102897.97;5081825;28;20220;-65
2022/01/15 10:44:47;;;;;;;113.53;26.88;;;;;;;1.39;100.00;102901.75;5077287;28;20001;-65
2022/01/15 10:47:16;;;;;;;111.07;25.77;;;;;;;1.40;100.00;102897.50;5079587;28;20595;-65
2022/01/15 10:49:42;;;;;;;113.28;28.13;;;;;;;1.41;100.00;102893.28;5081625;28;20028;-65
2022/01/15 10:52:22;;;;;;;109.38;25.95;;;;;;;1.44;100.00;102897.03;5082917;28;20087;-65
2022/01/15 10:54:52;;;;;;;110.40;25.27;;;;;;;1.45;100.00;102901.41;5069476;28;20263;-65
2022/01/15 10:57:23;;;;;;;107.25;24.75;;;;;;;1.47;100.00;102899.00;5076125;28;20283;-65
2022/01/15 11:00:14;;;;;;;104.55;26.20;;;;;;;1.51;100.00;102901.97;5085909;28;20069;-65
2022/01/15 11:02:45;;;;;;;103.22;25.42;;;;;;;1.51;100.00;102891.72;5074127;28;20029;-65
2022/01/15 11:05:36;;;;;;;116.50;26.42;;;;;;;1.52;100.00;102885.81;5075327;28;20028;-65
2022/01/15 11:08:12;;;;;;;106.78;25.48;;;;;;;1.52;100.00;102882.31;5082275;28;20304;-65
2022/01/15 11:10:37;;;;;;;98.70;25.02;;;;;;;1.54;100.00;102880.81;5070218;28;20040;-70
2022/01/15 11:13:06;;;;;;;108.68;25.42;;;;;;;1.55;100.00;102885.19;5076556;28;20157;-65
2022/01/15 11:15:33;;;;;;;106.95;26.10;;;;;;;1.55;100.00;102872.31;5081800;28;20013;-65
2022/01/15 11:17:59;;;;;;;106.88;28.45;;;;;;;1.54;100.00;102863.72;5079104;28;20066;-65
2022/01/15 11:20:29;;;;;;;118.88;27.73;;;;;;;1.58;100.00;102876.84;5080293;28;20027;-65
2022/01/15 11:22:55;;;;;;;115.65;27.08;;;;;;;1.59;100.00;102868.41;5079514;28;20063;-64
2022/01/15 11:25:20;;;;;;;107.78;27.13;;;;;;;1.60;100.00;102867.66;5081053;28;20024;-65
2022/01/15 11:27:45;;;;;;;124.40;29.20;;;;;;;1.60;100.00;102870.22;5085083;28;20012;-65
2022/01/15 11:30:12;;;;;;;112.90;27.85;;;;;;;1.60;100.00;102865.06;5082945;28;20175;-65